Aziz Ganiev

Olheiro-Chefe - Pakhtakor
23 Out 2027
Sábado
Processo

Personalidade

Adaptabilidade (11) Ambição (4) Controvérsia (18) Lealdade (17) Pressão (17) Profissionalismo (4) Espírito Esportivo (1) Temperamento (8)

Perfil

Estilo de Treinamento Democrático
Licença Nacional A
Determinação 6
Gestão de Pessoas 12
Motivação 6
Disciplina 8
Satisfação no Trabalho
100%
Fadiga
0%
Função Olheiro-Chefe
Salário 25.7K p/s
Contrato 14.03.2029

Desempenho

Comportamento Bom
Eficácia do Treinamento
50%
Desenvolvimento do Jogador
25%
Prevenção de Lesões
60%
Implementação Tática
60%

Eventos Recentes

Avaliou um jogador agora
Participou de uma reunião de recrutamento agora
Participou de uma reunião de recrutamento agora
Avaliou um jogador agora
Avaliou um jogador 7d atrás
Avaliou um jogador 7d atrás
Avaliou um jogador 7d atrás
Avaliou um jogador 7d atrás

Monitorando agora

246
Jogador Clube Status Habilidade Confiança Observado Última observação Último voto
Mohamed Konaté Akhmat Grozny Ativo 117 / 124 40% 7 22.10.2027 -
Luca Franco Arsenal Ativo 115 / 119 40% 5 22.10.2027 -
Dennis Gjengaar Valerenga Ativo 105 / 114 40% 2 22.10.2027 -
Vladislav Pospelov Baltika Ativo 78 / 92 40% 4 21.10.2027 -
Ivan Veselkov Dinamo Kirov Ativo 83 / 89 40% 5 21.10.2027 -
Kaick FC Dallas Ativo 95 / 113 40% 2 21.10.2027 -
Fillip Jenssen Riise Stabaek Ativo 101 / 120 40% 1 19.10.2027 -
Sheriff Amuda Shooting Stars Ativo 97 / 101 40% 1 19.10.2027 -
Agustín Medina Lanús Ativo 113 / 128 40% 4 18.10.2027 -
Geanfranco Rodríguez Defensor Sporting Ativo 92 / 90 40% 2 18.10.2027 -
Felipe Faúndez O'Higgins Ativo 106 / 99 40% 1 18.10.2027 -
Georgy Melkadze Akhmat Grozny Ativo 120 / 121 40% 11 16.10.2027 -
Edarlyn Reyes Arsenal Tula Ativo 118 / 112 40% 15 16.10.2027 -
Clemente Montes Universidad Catolica Ativo 122 / 111 40% 6 16.10.2027 -
Mikhail Ignatov Sochi Ativo 123 / 116 40% 5 15.10.2027 -
Cristian Arango San Jose Earthquakes Ativo 139 / 125 40% 9 15.10.2027 -
Aziz Xolmurodov AGMK Ativo 102 / 96 40% 13 14.10.2027 -
Nicolás Moreno San Martín Ativo 101 / 110 40% 3 14.10.2027 -
Joel Kojo Navbahor Ativo 113 / 108 40% 11 13.10.2027 -
Mathias Grundetjern Stabaek Ativo 99 / 92 40% 5 13.10.2027 -
Nathan Fogaça Fortaleza Ativo 132 / 116 40% 1 13.10.2027 -
Razhab Magomedov Dinamo Makhachkala Ativo 115 / 103 40% 8 12.10.2027 -
Valentín Quevedo Colegiales Ativo 103 / 119 40% 5 12.10.2027 -
Javier Martínez Almirante Brown Ativo 113 / 117 40% 3 12.10.2027 -
Bobur Abdiholiqov Nasaf Ativo 118 / 122 40% 4 11.10.2027 -
Brayan Gil Baltika Ativo 131 / 115 40% 4 11.10.2027 -
Ljupce Doriev Sogdiana Ativo 109 / 104 40% 7 10.10.2027 -
Fabricio Rojas Gimnasia y Tiro Ativo 109 / 101 40% 3 10.10.2027 -
Camilo Machado Madryn Ativo 104 / 107 40% 3 10.10.2027 -
Jasur Yaxshiboyev Lokomotiv Ativo 105 / 108 40% 6 09.10.2027 -
Artem Nosachev Spartak Moscow Ativo 82 / 79 40% 2 09.10.2027 -
Vladimir Skomarovskiy Niva Ativo 84 / 81 40% 2 09.10.2027 -
Elías Ayala Madryn Ativo 101 / 104 40% 1 09.10.2027 -
Lautaro Dufur Rentistas Ativo 105 / 105 40% 1 09.10.2027 -
Lucio Castillo Colegiales Ativo 111 / 112 40% 4 07.10.2027 -
Shohruhbek Abdurahmonov Navbahor Ativo 104 / 98 40% 13 06.10.2027 -
Vladimir Khubulov Dinamo Makhachkala Ativo 117 / 113 40% 9 06.10.2027 -
Dmitry Alexandrov Dinamo Moscow Ativo 91 / 98 40% 6 06.10.2027 -
Vladislav Sarveli Nizhniy Novgorod Ativo 116 / 112 40% 16 04.10.2027 -
Lucas Ríos Atlanta Ativo 119 / 106 40% 3 02.10.2027 -
Hazem Mastouri Nizhniy Novgorod Ativo 110 / 112 40% 3 02.10.2027 -
Jeremy Rafanello Philadelphia Union Ativo 97 / 88 40% 1 02.10.2027 -
Alexandr Burkov Rodina M Ativo 82 / 94 40% 3 01.10.2027 -
Enzo Avaro Mitre Ativo 119 / 118 40% 3 01.10.2027 -
Santino Baldassarri Quilmes Ativo 86 / 98 40% 2 01.10.2027 -
Juan David Rueda Alianza Petrolera Ativo 109 / 119 40% 3 29.09.2027 -
Lucas Carrizo Lanús Ativo 112 / 115 40% 2 29.09.2027 -
Gabriel Taliari Juventude Ativo 128 / 119 40% 3 29.09.2027 -
Alexandr Yushin Torpedo Moscow Ativo 106 / 99 40% 16 28.09.2027 -
Vladislav Shitov Krylya Sovetov Ativo 108 / 124 40% 2 28.09.2027 -
Clayson São Paulo Ativo 119 / 121 40% 1 27.09.2027 -
Matija Popović Chaika Ativo 112 / 106 40% 2 26.09.2027 -
Erik Flataker AIK Ativo 113 / 132 40% 2 25.09.2027 -
Matías Tissera Instituto Ativo 118 / 117 40% 5 25.09.2027 -
Nikita Khvat Amkar Ativo 85 / 80 40% 2 25.09.2027 -
Adrian Skogmar Malmo FF Ativo 113 / 125 40% 2 25.09.2027 -
Matías Canedo Rampla Juniors Ativo 81 / 101 40% 1 25.09.2027 -
Tiago Gordillo San Miguel Ativo 88 / 85 40% 1 24.09.2027 -
Gift Isioma Warri Wolves Ativo 88 / 100 40% 1 24.09.2027 -
Alexandr Tarasov Rostov Ativo 82 / 88 40% 1 24.09.2027 -
German Onugkha Rodina Ativo 123 / 127 40% 15 23.09.2027 -
Carlos Gugenheim Almirante Brown Ativo 119 / 114 40% 3 23.09.2027 -
Gideon Manaseh Ikorodu City Ativo 102 / 106 40% 2 20.09.2027 -
Inti Borghetto Patronato Ativo 93 / 87 40% 1 20.09.2027 -
Andrey Ivlev Nizhniy Novgorod Ativo 106 / 112 40% 8 19.09.2027 -
Evgeniy Novykh Vitebsk Ativo 83 / 84 40% 2 19.09.2027 -
Björn Hedlöf Helsingborg Ativo 89 / 93 40% 1 19.09.2027 -
Gustavo Aguilar Libertad Ativo 112 / 122 40% 2 17.09.2027 -
Brian Mansilla Akhmat Grozny Ativo 119 / 131 40% 2 15.09.2027 -
Alexandr Derzhinskiy Slavia Mozyr Ativo 88 / 95 40% 1 14.09.2027 -
Alexandr Voronovich Niva Ativo 79 / 83 40% 3 13.09.2027 -
Stipe Perica Neftchi Ativo 110 / 97 40% 2 11.09.2027 -
Aleksa Stanisavljevic Amkar Ativo 89 / 93 40% 2 11.09.2027 -
Germán Barbas Penarol Ativo 97 / 112 40% 1 11.09.2027 -
Daniil Cherkasov Kvant Ativo 69 / 73 40% 2 07.09.2027 -
Daniel Sanchez Universitario Popayan Ativo 87 / 78 40% 1 07.09.2027 -
Gamid Agalarov Dinamo Makhachkala Ativo 111 / 111 40% 10 06.09.2027 -
José Álvarez Albion Ativo 112 / 122 40% 4 02.09.2027 -
Martin Boakye Andijon Ativo 98 / 110 40% 9 31.08.2027 -
Denis Bogomolov Mashuk Ativo 90 / 93 40% 5 31.08.2027 -
Ollobergan Karimov Sogdiana Ativo 93 / 106 40% 2 31.08.2027 -
Rati Grigalava Suduva Ativo 78 / 91 40% 1 31.08.2027 -
Gonzalo Gelini Boca Juniors Ativo 112 / 138 40% 1 30.08.2027 -
Maksim Samorodov Akhmat Grozny Ativo 122 / 125 40% 5 28.08.2027 -
Brian Blando Agropecuario Argentino Ativo 108 / 99 40% 3 28.08.2027 -
Dilan Ortíz Ufa Ativo 102 / 99 40% 10 26.08.2027 -
Leonardo Sequeira Huracán Ativo 118 / 130 40% 1 24.08.2027 -
Isaac Tshibangu Emirates Club Ativo 114 / 93 40% 4 21.08.2027 -
Alexandr Kulikov Kuban Ativo 92 / 99 40% 4 21.08.2027 -
Alan Morinigo Olimpia Ativo 107 / 112 40% 2 21.08.2027 -
Franco García Ferro Carril Oeste Ativo 113 / 103 40% 1 21.08.2027 -
Lucas Wasilewsky Paysandu Ativo 109 / 112 40% 1 21.08.2027 -
Nicolás Medina Atlanta Ativo 110 / 117 40% 1 20.08.2027 -
Azamat Erden Taraz Ativo 82 / 75 40% 2 19.08.2027 -
Facundo Balatti Penarol Ativo 99 / 112 40% 5 17.08.2027 -
Felipe Obradovich Gimnasia La Plata Ativo 113 / 107 40% 2 17.08.2027 -
Slobodan Tedić Akron Ativo 104 / 114 40% 7 16.08.2027 -
Alexandre Jesus Orenburg Ativo 117 / 120 40% 5 14.08.2027 -
Jhon Aponza Boca Juniors Ativo 115 / 109 40% 2 14.08.2027 -
Ousmane Camara Sharjah Ativo 134 / 118 40% 2 12.08.2027 -
Ravshan Xayrullayev Bukhara Ativo 99 / 113 40% 1 12.08.2027 -
Franco Ayunta Temperley Ativo 114 / 110 40% 1 11.08.2027 -
Martim Cunha Porto Ativo 95 / 120 40% 2 09.08.2027 -
Alejandro Cantero Huesca Ativo 129 / 128 40% 1 09.08.2027 -
Cheickna Samaké Djoliba Ativo 97 / 86 40% 2 06.08.2027 -
Samson Tovide Colchester United Ativo 104 / 92 40% 1 06.08.2027 -
Miguel Falé Pacos de Ferreira Ativo 101 / 118 40% 7 04.08.2027 -
Sebastián Flores Rayo Vallecano Ativo 107 / 127 40% 3 03.08.2027 -
Luis Otávio Toronto FC Ativo 105 / 123 40% 1 03.08.2027 -
Imeda Ashortia Andijon Ativo 99 / 111 40% 2 30.07.2027 -
Zahir Ibarra Elche Ativo 107 / 125 40% 1 26.07.2027 -
Azizbek Erimbetov Neftchi Ativo 84 / 88 40% 1 23.07.2027 -
Matvey Bardachev Zenit Ativo 100 / 121 40% 1 23.07.2027 -
Sergio Santos Atlanta United FC Ativo 112 / 128 40% 1 23.07.2027 -
Markus Jensen Nacional Ativo 100 / 106 40% 2 22.07.2027 -
Tenton Yenne Baltika Ativo 115 / 102 40% 3 19.07.2027 -
Ibrahim Sabiu Bendel Insurance Ativo 86 / 79 40% 2 18.07.2027 -
Dylan Gorosito Boca Juniors Ativo 105 / 111 40% 1 18.07.2027 -
Danijel Šturm Slavia Prague Ativo 120 / 103 40% 1 16.07.2027 -
Dmitry Borodin Dinamo St Petersburg Ativo 77 / 80 40% 4 13.07.2027 -
Midana Cassamá Portimonense Ativo 99 / 116 40% 8 13.07.2027 -
Demjan Iljev SKA Khabarovsk Ativo 79 / 91 40% 3 13.07.2027 -
Kamran Aliev SKA Khabarovsk Ativo 110 / 101 40% 10 11.07.2027 -
Naoufal Bannis Vitesse Ativo 108 / 108 40% 7 10.07.2027 -
Chinonso Offor Baltika Ativo 112 / 112 40% 9 04.07.2027 -
Jonathan Okoronkwo Torpedo Moscow Ativo 99 / 99 40% 4 03.07.2027 -
Luka Reischl ADO Den Haag Ativo 102 / 114 40% 6 01.07.2027 -
Mikhail Ryadno Baltika Ativo 98 / 113 40% 1 30.06.2027 -
Mikhail Schetinin Lokomotiv Moscow Ativo 95 / 105 40% 3 29.06.2027 -
Thijs Kraaijeveld Feyenoord Ativo 118 / 115 40% 1 29.06.2027 -
Hugo Vallejo Piast Ativo 110 / 101 40% 1 24.06.2027 -
Mandla Mokotjo SuperSport United Ativo 97 / 84 40% 4 22.06.2027 -
Maxwell Azafokpe Inter Allies Ativo 72 / 76 40% 1 21.06.2027 -
Aaron Drinan Swindon Town Ativo 96 / 114 40% 4 20.06.2027 -
Artem Khmarin Krasnodar Ativo 80 / 85 40% 2 15.06.2027 -
Simone Kosijer Triestina Ativo 95 / 85 40% 2 15.06.2027 -
Filip Ivanović Sogdiana Perdido 100 / 107 69% 1 14.06.2027 -
Jakub Bednarczyk Gornik Leczna Ativo 107 / 99 40% 6 11.06.2027 -
Facundo Infante Talleres Ativo 83 / 83 40% 1 11.06.2027 -
German Ignatov Rostov Ativo 95 / 95 40% 3 10.06.2027 -
Alexey Kashtanov Torpedo Moscow Ativo 104 / 98 40% 4 05.06.2027 -
Harold Santiago Mosquera Cerro Porteno Ativo 116 / 117 40% 8 03.06.2027 -
Igor Golban Sogdiana Perdido 95 / 88 69% 1 02.06.2027 -
Nikolay Sotnikov Arsenal Dzerzhinsk Ativo 82 / 94 40% 1 30.05.2027 -
Sergio Castillo Cortulua Ativo 97 / 100 40% 1 30.05.2027 -
Timofey Marinkin Dinamo Moscow Ativo 88 / 94 40% 3 27.05.2027 -
Timofey Rozhkov Spartak Moscow Ativo 68 / 67 40% 1 27.05.2027 -
Moncef Zekri Sporting CP Ativo 86 / 113 40% 1 23.05.2027 -
Ichem Ferrah Pisa Ativo 117 / 123 40% 6 19.05.2027 -
Artem Zmeev Dinamo Moscow Ativo 71 / 80 40% 2 13.05.2027 -
Alexandr Metsiev Sochi Ativo 68 / 72 40% 2 13.05.2027 -
Lucas Mbamba Westerlo Ativo 79 / 94 40% 2 12.05.2027 -
Artem Bandikyan CSKA Moscow Ativo 106 / 111 40% 6 11.05.2027 -
Vladislav Grekovich Osipovichi Ativo 85 / 93 40% 1 11.05.2027 -
Kelvin Flórez Junior Ativo 111 / 117 40% 1 10.05.2027 -
Yegor Kortsov Dinamo Brest Ativo 104 / 111 40% 1 09.05.2027 -
Claudio Salto Almagro Ativo 106 / 97 40% 2 07.05.2027 -
Amar Rahmanović Krylya Sovetov Ativo 111 / 112 40% 11 04.05.2027 -
Rob Street Lincoln City Ativo 95 / 112 40% 2 29.04.2027 -
Elias Manoel Tijuana Ativo 123 / 113 40% 1 25.04.2027 -
Isa Sakamoto Westerlo Ativo 107 / 117 40% 1 21.04.2027 -
Ilja Safronov Rotor Ativo 102 / 93 40% 5 20.04.2027 -
Nikita Kononenko Metallurg Ativo 70 / 77 40% 2 19.04.2027 -
Marin Žgomba Vitebsk Ativo 79 / 96 40% 1 19.04.2027 -
Maxim Mishutin Ryazan Ativo 76 / 79 40% 3 14.04.2027 -
Lucas Jetten Cambuur Ativo 105 / 116 40% 1 14.04.2027 -
Alexandr Goryachkin Kolomna Ativo 78 / 74 40% 1 05.04.2027 -
Konta Ismaily Ativo 88 / 104 40% 1 04.04.2027 -
Sergey Chernov Zenit Ativo 85 / 92 40% 1 04.04.2027 -
Kirill Glazunov Zenit Ativo 82 / 91 40% 3 30.03.2027 -
Tommaso Cecotti Carpi Ativo 87 / 96 40% 1 28.03.2027 -
Mats Egbring Heerenveen Ativo 102 / 100 40% 1 27.03.2027 -
Kirill Volkov Volgar Ativo 86 / 83 40% 1 27.03.2027 -
Maxim Ofitserov Kuban Ativo 77 / 75 40% 1 20.03.2027 -
Leandro Martins Benfica Ativo 88 / 97 40% 2 06.03.2027 -
Stepan Laskin Dinamo Moscow Ativo 75 / 86 40% 2 06.03.2027 -
Miracle Williams Kryvbas Ativo 82 / 83 40% 1 06.03.2027 -
Jacques Siwe Rubin Ativo 112 / 125 40% 4 21.02.2027 -
Mirlind Daku Spartak Moscow Ativo 125 / 122 40% 2 19.02.2027 -
Ilja Rozhkov Rubin Ativo 109 / 126 40% 4 05.02.2027 -
Georgy Tikhomirov Dinamo Moscow Ativo 76 / 79 40% 2 02.02.2027 -
Samuel Lucero Defensa y Justicia Ativo 115 / 122 40% 3 01.02.2027 -
Manu Nieto Andorra Ativo 106 / 127 40% 1 28.12.2026 -
Konstantin Shiltsov Baltika Ativo 100 / 99 40% 1 25.12.2026 -
Fanil Sungatulin Ural Ativo 107 / 115 40% 1 23.12.2026 -
Alexandr Rudenko Lokomotiv Moscow Ativo 123 / 121 40% 4 21.12.2026 -
Steven Alfred Torpedo-BelAZ Ativo 106 / 96 40% 1 21.12.2026 -
David Karaev KAMAZ Ativo 94 / 100 40% 3 20.12.2026 -
Umeh Emmanuel Fatih Karagumruk Ativo 121 / 126 40% 1 20.12.2026 -
Gedeon Guzina Orenburg Ativo 103 / 113 40% 3 14.12.2026 -
David Davidyan Rotor Ativo 104 / 103 40% 2 12.12.2026 -
Illaijh de Ruijter ADO Den Haag Ativo 101 / 107 40% 1 12.12.2026 -
Rasul Guseinov Murom Ativo 66 / 79 40% 1 12.12.2026 -
Andrey Mazurin Yenisey Ativo 102 / 90 40% 1 06.12.2026 -
Ismaël Baouf Cambuur Ativo 101 / 133 40% 1 06.12.2026 -
Riley Owen Wycombe Wanderers Ativo 98 / 124 40% 1 06.12.2026 -
Nichita Moțpan SKA Khabarovsk Ativo 94 / 99 40% 1 03.12.2026 -
Damián Puebla Orenburg Ativo 120 / 129 40% 1 03.12.2026 -
Husain Norchayev Navbahor Ativo 127 / 118 40% 4 28.11.2026 -
Marcelo Torres Gimnasia La Plata Ativo 126 / 130 40% 3 18.11.2026 -
Alisher Odilov Neftchi Ativo 104 / 103 40% 1 18.11.2026 -
Arihiro Sentoku AGMK Ativo 93 / 106 40% 1 18.11.2026 -
Daniil Penchikov Arsenal Tula Ativo 97 / 96 40% 1 18.11.2026 -
Ekain Orobengoa Real Sociedad Ativo 106 / 86 40% 2 12.11.2026 -
Alan Forneris Racing Club Ativo 108 / 125 40% 1 10.11.2026 -
Jorginho Kairat Ativo 124 / 107 40% 1 10.11.2026 -
Roman Paparyga Qizilqum Ativo 99 / 107 40% 1 04.11.2026 -
Umar Adhamzoda Navbahor Ativo 107 / 104 40% 1 04.11.2026 -
Max Svensson Penafiel Ativo 103 / 98 40% 3 25.10.2026 -
Tobías Andrada Betis Ativo 104 / 134 40% 2 25.10.2026 -
Abdulpasha Djabrailov Dinamo Makhachkala Ativo 82 / 91 40% 1 25.10.2026 -
Surprise Manthosi Polokwane City Ativo 98 / 98 40% 1 24.10.2026 -
Isaac Matondo Koper Ativo 116 / 104 40% 3 23.10.2026 -
Kristian Eriksen Molde Ativo 138 / 133 40% 2 21.10.2026 -
Zabihillo O'rinboyev Navbahor Ativo 112 / 97 40% 3 21.10.2026 -
Alexei Dominguez Pachuca Ativo 99 / 125 40% 3 19.10.2026 -
Marcos Camarda Santiago Wanderers Ativo 113 / 118 40% 2 18.10.2026 -
Korede Osundina Casa Pia Ativo 109 / 111 40% 1 16.10.2026 -
Oumar Camara Vitoria Guimaraes Ativo 128 / 118 40% 1 15.10.2026 -
Juan Felipe Holguín Envigado Ativo 93 / 87 40% 1 07.10.2026 -
Ryan Oné Sheffield United Ativo 100 / 124 40% 1 07.10.2026 -
Nikita Vershinin Zenit Ativo 90 / 75 40% 2 05.10.2026 -
Uroš Đuranović Sliema Wanderers Ativo 94 / 86 40% 1 02.10.2026 -
Sean Fusire Sheffield Wednesday Ativo 98 / 123 40% 1 01.10.2026 -
Teun Gijselhart Deportivo La Coruña Ativo 117 / 98 40% 1 29.09.2026 -
Stefan Čolović Nasaf Ativo 92 / 102 40% 1 27.09.2026 Mais informações
Ignacio Ovando Rosario Central Ativo 107 / 117 40% 1 26.09.2026 -
Oleksiy Shchebetun Qizilqum Ativo 91 / 91 40% 1 23.09.2026 -
Théo Berdayes Sion Ativo 117 / 103 40% 1 21.09.2026 -
Bojan Radulović Huddersfield Town Ativo 101 / 98 40% 1 20.09.2026 -
Rhian Brewster Derby County Ativo 125 / 117 40% 1 20.09.2026 -
Ramiro Ruiz Rodríguez Atlético Tucumán Ativo 111 / 130 40% 1 18.09.2026 -
Juan Cruz Zurbriggen San Telmo Ativo 109 / 107 40% 1 16.09.2026 -
Jules-Anthony Vilsaint Toronto FC Ativo 95 / 95 40% 1 15.09.2026 -
Robert Murić Floriana Ativo 93 / 119 40% 1 14.09.2026 -
Gonzalo Córdoba Mitre Ativo 102 / 101 40% 1 12.09.2026 -
Genaro Rossi San Martín SJ Ativo 99 / 111 40% 1 09.09.2026 -
G'iyosjon Rizaqulov Qizilqum Ativo 66 / 85 40% 1 08.09.2026 -
Narimonjon Ahmadjonov Bunyodkor Ativo 81 / 90 40% 1 24.08.2026 -
T-Jay Parfitt Cardiff City Ativo 87 / 92 40% 1 23.08.2026 -
Gady Beyuku Blackburn Rovers Ativo 97 / 121 40% 1 22.08.2026 -
Ramiro Centurión San Lorenzo Ativo 96 / 95 40% 1 22.08.2026 -
Thiago Currado Platense Ativo 96 / 105 40% 1 21.08.2026 -
Iker Córdoba Valencia Ativo 120 / 105 40% 1 19.08.2026 -
Tiago Marghetich Quilmes Ativo 81 / 88 40% 1 02.08.2026 -
Kazunari Kita Real Sociedad Ativo 102 / 89 40% 1 02.08.2026 -